Time;durP1;ratioP1;P1;durP2;ratioP2;P2;SDS_P1;SDS_P2;PMS_P1;PMS_P2;Temp;Humidity;BMP_temperature;BMP_pressure;BME280_temperature;BME280_humidity;BME280_pressure;Samples;Min_cycle;Max_cycle;Signal;HPM_P1;HPM_P2
2024/03/14 00:00:38;;;;;;;24.63;19.27;;;;;;;11.91;100.00;100337.97;5018549;28;20735;-82
2024/03/14 00:03:05;;;;;;;26.20;21.07;;;;;;;11.89;100.00;100343.28;5019584;28;20629;-83
2024/03/14 00:05:32;;;;;;;27.27;20.73;;;;;;;11.91;100.00;100343.22;5018618;28;20243;-81
2024/03/14 00:08:00;;;;;;;25.67;19.50;;;;;;;11.91;100.00;100345.81;5019198;28;20210;-82
2024/03/14 00:10:27;;;;;;;30.33;20.53;;;;;;;11.90;100.00;100351.97;5019460;28;20232;-84
2024/03/14 00:12:53;;;;;;;31.37;19.97;;;;;;;11.88;100.00;100349.34;5019366;28;20683;-82
2024/03/14 00:15:20;;;;;;;30.10;20.53;;;;;;;11.86;100.00;100339.84;5030137;28;20214;-83
2024/03/14 00:17:46;;;;;;;24.00;19.80;;;;;;;11.86;100.00;100335.47;5038210;28;20678;-82
2024/03/14 00:20:13;;;;;;;21.97;19.50;;;;;;;11.90;100.00;100337.13;5038919;28;20247;-81
2024/03/14 00:22:39;;;;;;;24.07;19.53;;;;;;;11.91;100.00;100344.09;5039191;28;20226;-82
2024/03/14 00:25:09;;;;;;;22.40;19.40;;;;;;;11.89;100.00;100345.00;5038528;28;20667;-83
2024/03/14 00:27:37;;;;;;;23.10;19.87;;;;;;;11.91;100.00;100336.25;5038393;28;20640;-82
2024/03/14 00:30:04;;;;;;;20.67;18.53;;;;;;;11.94;100.00;100343.16;5038986;28;20677;-83
2024/03/14 00:32:33;;;;;;;23.90;20.17;;;;;;;11.92;100.00;100337.94;5038549;28;20670;-83
2024/03/14 00:35:02;;;;;;;20.90;18.80;;;;;;;11.90;100.00;100339.75;5039108;28;20211;-84
2024/03/14 00:37:29;;;;;;;22.27;19.23;;;;;;;11.89;100.00;100338.03;5038674;28;20205;-81
2024/03/14 00:39:55;;;;;;;24.30;17.90;;;;;;;11.85;100.00;100327.66;5038699;28;20223;-82
2024/03/14 00:42:24;;;;;;;21.33;19.10;;;;;;;11.79;100.00;100325.19;5038876;28;20212;-82
2024/03/14 00:44:50;;;;;;;21.30;19.10;;;;;;;11.84;100.00;100313.72;5027690;28;20233;-82
2024/03/14 00:47:17;;;;;;;26.23;19.47;;;;;;;11.83;100.00;100321.59;5017779;28;20236;-83
2024/03/14 00:49:43;;;;;;;21.67;18.87;;;;;;;11.78;100.00;100313.03;5018142;28;20284;-83
2024/03/14 00:52:11;;;;;;;21.90;19.47;;;;;;;11.79;100.00;100302.50;5018004;28;20207;-82
2024/03/14 00:54:37;;;;;;;26.30;20.37;;;;;;;11.73;100.00;100303.56;5018470;28;20647;-82
2024/03/14 00:57:04;;;;;;;21.30;18.90;;;;;;;11.79;100.00;100297.28;5017630;28;20219;-85
2024/03/14 00:59:30;;;;;;;25.10;20.90;;;;;;;11.75;100.00;100293.03;5018038;28;20224;-81
2024/03/14 01:01:57;;;;;;;22.33;19.93;;;;;;;11.77;100.00;100288.63;5018368;28;20210;-82
2024/03/14 01:04:23;;;;;;;23.23;19.53;;;;;;;11.83;100.00;100296.31;5018678;28;20212;-84
2024/03/14 01:06:52;;;;;;;22.67;19.77;;;;;;;11.81;100.00;100294.63;5017984;28;20690;-83
2024/03/14 01:09:24;;;;;;;24.57;18.87;;;;;;;11.80;100.00;100285.94;5018742;28;20233;-83
2024/03/14 01:11:51;;;;;;;23.43;19.73;;;;;;;11.71;100.00;100292.28;5019283;28;20213;-83
2024/03/14 01:14:17;;;;;;;23.77;20.50;;;;;;;11.79;100.00;100293.81;5026484;28;20239;-81
2024/03/14 01:16:44;;;;;;;21.50;18.47;;;;;;;11.82;100.00;100294.59;5032125;28;20837;-82
2024/03/14 01:19:11;;;;;;;23.03;17.60;;;;;;;11.82;100.00;100294.59;5034496;28;20232;-83
2024/03/14 01:21:37;;;;;;;20.53;18.07;;;;;;;11.84;100.00;100289.34;5034575;28;20209;-82
2024/03/14 01:24:04;;;;;;;21.03;19.03;;;;;;;11.76;100.00;100296.53;5034513;28;20210;-83
2024/03/14 01:26:32;;;;;;;21.17;19.03;;;;;;;11.79;100.00;100294.66;5034536;28;20212;-83
2024/03/14 01:28:59;;;;;;;23.97;19.77;;;;;;;11.71;100.00;100284.44;5034499;28;20215;-83
2024/03/14 01:31:25;;;;;;;21.40;19.27;;;;;;;11.73;100.00;100300.06;5033913;28;20208;-82
2024/03/14 01:33:52;;;;;;;21.40;17.47;;;;;;;11.69;100.00;100306.25;5033716;28;20739;-83
2024/03/14 01:36:20;;;;;;;21.33;18.87;;;;;;;11.67;100.00;100315.91;5034402;28;20209;-81
2024/03/14 01:38:47;;;;;;;20.97;18.77;;;;;;;11.66;100.00;100307.22;5035041;28;20235;-83
2024/03/14 01:41:17;;;;;;;21.23;19.10;;;;;;;11.67;100.00;100301.09;5034034;28;20582;-81
2024/03/14 01:43:51;;;;;;;21.57;19.47;;;;;;;11.60;100.00;100307.38;5036740;28;20236;-82
2024/03/14 01:46:17;;;;;;;20.37;18.37;;;;;;;11.63;100.00;100322.13;5018315;28;20665;-81
2024/03/14 01:48:44;;;;;;;22.33;19.10;;;;;;;11.62;100.00;100317.78;5017647;28;20238;-83
2024/03/14 01:51:11;;;;;;;21.40;19.20;;;;;;;11.60;100.00;100320.44;5018455;28;20701;-82
2024/03/14 01:53:38;;;;;;;19.30;17.50;;;;;;;11.60;100.00;100324.81;5019194;28;20209;-82
2024/03/14 01:56:04;;;;;;;19.27;17.47;;;;;;;11.58;100.00;100330.06;5018341;28;20220;-83
2024/03/14 01:58:31;;;;;;;20.37;18.20;;;;;;;11.63;100.00;100333.41;5017604;28;20293;-83
2024/03/14 02:01:00;;;;;;;18.70;17.00;;;;;;;11.65;100.00;100329.00;5017826;28;20291;-83
2024/03/14 02:03:27;;;;;;;20.80;18.40;;;;;;;11.50;100.00;100330.25;5017874;28;20207;-85
2024/03/14 02:05:53;;;;;;;20.17;18.00;;;;;;;11.55;100.00;100316.22;5018478;28;20214;-83
2024/03/14 02:08:21;;;;;;;20.47;18.43;;;;;;;11.62;100.00;100317.78;5018920;28;20206;-82
2024/03/14 02:10:47;;;;;;;19.90;18.00;;;;;;;11.62;100.00;100317.78;5018263;28;20246;-83
2024/03/14 02:13:14;;;;;;;20.63;18.43;;;;;;;11.66;100.00;100319.44;5021980;28;20664;-82
2024/03/14 02:15:40;;;;;;;18.93;17.10;;;;;;;11.56;100.00;100324.03;5021494;28;20252;-83
2024/03/14 02:18:07;;;;;;;19.57;17.53;;;;;;;11.57;100.00;100309.19;5018386;28;20739;-82
2024/03/14 02:20:33;;;;;;;21.63;18.70;;;;;;;11.61;100.00;100310.84;5018399;28;20289;-81
2024/03/14 02:23:00;;;;;;;21.53;19.33;;;;;;;11.62;100.00;100313.41;5018672;28;20260;-84
2024/03/14 02:25:26;;;;;;;20.77;18.67;;;;;;;11.64;100.00;100302.94;5018403;28;20207;-83
2024/03/14 02:27:53;;;;;;;19.47;17.47;;;;;;;11.49;100.00;100293.69;5017855;28;20218;-83
2024/03/14 02:30:19;;;;;;;21.47;17.73;;;;;;;11.58;100.00;100284.78;5021934;28;20343;-81
2024/03/14 02:32:47;;;;;;;20.17;18.00;;;;;;;11.61;100.00;100290.78;5021752;28;20238;-83
2024/03/14 02:35:14;;;;;;;19.30;17.33;;;;;;;11.62;100.00;100283.81;5021612;28;20583;-81
2024/03/14 02:37:40;;;;;;;19.70;17.73;;;;;;;11.48;100.00;100292.00;5021755;28;20260;-84
2024/03/14 02:40:08;;;;;;;19.93;17.87;;;;;;;11.50;100.00;100274.53;5021360;28;20233;-83
2024/03/14 02:42:35;;;;;;;20.60;18.47;;;;;;;11.54;100.00;100278.78;5021704;28;20724;-83
2024/03/14 02:45:03;;;;;;;19.10;17.27;;;;;;;11.44;100.00;100277.28;5028759;28;20644;-83
2024/03/14 02:47:30;;;;;;;20.37;17.87;;;;;;;11.40;100.00;100258.22;5022017;28;20217;-83
2024/03/14 02:49:57;;;;;;;19.90;17.80;;;;;;;11.34;100.00;100245.31;5021323;28;20238;-82
2024/03/14 02:52:23;;;;;;;23.47;19.27;;;;;;;11.37;100.00;100239.97;5021589;28;20217;-84
2024/03/14 02:54:50;;;;;;;19.73;17.63;;;;;;;11.45;100.00;100238.03;5021168;28;20215;-83
2024/03/14 02:57:17;;;;;;;19.30;17.07;;;;;;;11.50;100.00;100238.78;5020877;28;20207;-82
2024/03/14 02:59:43;;;;;;;19.03;17.07;;;;;;;11.50;100.00;100256.22;5020491;28;20223;-83
2024/03/14 03:02:13;;;;;;;17.07;15.37;;;;;;;11.61;100.00;100263.78;5021806;28;20234;-84
2024/03/14 03:04:39;;;;;;;18.13;16.47;;;;;;;11.55;100.00;100266.56;5022875;28;20205;-84
2024/03/14 03:07:06;;;;;;;17.87;16.17;;;;;;;11.60;99.94;100275.16;5021568;28;20213;-80
2024/03/14 03:09:33;;;;;;;17.67;16.00;;;;;;;11.61;100.00;100282.06;5021358;28;20233;-82
2024/03/14 03:12:00;;;;;;;19.17;17.23;;;;;;;11.58;100.00;100276.94;5021530;28;20213;-83
2024/03/14 03:14:26;;;;;;;17.73;15.87;;;;;;;11.54;100.00;100278.78;5028877;28;20214;-82
2024/03/14 03:16:53;;;;;;;16.87;15.30;;;;;;;11.49;100.00;100283.25;5038959;28;20223;-83
2024/03/14 03:19:20;;;;;;;17.97;16.07;;;;;;;11.53;99.65;100282.28;5040407;28;20237;-83
2024/03/14 03:21:46;;;;;;;16.70;14.97;;;;;;;11.60;99.53;100275.16;5041089;28;20215;-83
2024/03/14 03:24:12;;;;;;;17.70;16.13;;;;;;;11.63;99.20;100291.59;5040877;28;20623;-83
2024/03/14 03:26:41;;;;;;;16.93;15.47;;;;;;;11.66;98.87;100295.91;5040861;28;20216;-83
2024/03/14 03:29:06;;;;;;;18.40;16.47;;;;;;;11.62;98.79;100291.66;5041637;28;20790;-81
2024/03/14 03:31:33;;;;;;;17.53;15.73;;;;;;;11.59;98.52;100299.56;5040919;28;20232;-82
2024/03/14 03:33:59;;;;;;;17.23;15.43;;;;;;;11.53;99.96;100279.66;5041377;28;20218;-82
2024/03/14 03:36:26;;;;;;;16.97;15.37;;;;;;;11.52;99.82;100273.56;5039744;28;20233;-84
2024/03/14 03:38:52;;;;;;;16.73;15.33;;;;;;;11.59;99.48;100276.03;5039393;28;20210;-83
2024/03/14 03:41:23;;;;;;;16.23;14.80;;;;;;;11.49;99.86;100273.63;5039599;28;20200;-83
2024/03/14 03:43:50;;;;;;;15.90;14.40;;;;;;;11.51;99.41;100260.53;5041250;28;20233;-83
2024/03/14 03:46:16;;;;;;;17.60;15.30;;;;;;;11.56;99.26;100270.91;5020881;28;20217;-82
2024/03/14 03:48:42;;;;;;;16.97;15.47;;;;;;;11.56;98.64;100266.53;5020706;28;20211;-84
2024/03/14 03:51:08;;;;;;;16.67;15.07;;;;;;;11.55;99.05;100275.25;5019958;28;20298;-83
2024/03/14 03:53:34;;;;;;;16.57;15.03;;;;;;;11.49;98.55;100278.88;5019965;28;20668;-83
2024/03/14 03:56:02;;;;;;;16.37;14.80;;;;;;;11.55;98.44;100277.84;5020480;28;20229;-83
2024/03/14 03:58:28;;;;;;;16.17;14.67;;;;;;;11.53;98.50;100274.44;5020964;28;20203;-83
2024/03/14 04:01:03;;;;;;;17.17;15.37;;;;;;;11.45;98.16;100290.31;5020357;28;20282;-82
2024/03/14 04:03:28;;;;;;;15.63;14.17;;;;;;;11.43;98.70;100280.78;5022414;28;20205;-82
2024/03/14 04:05:55;;;;;;;15.77;14.33;;;;;;;11.42;98.59;100285.16;5020495;28;20272;-82
2024/03/14 04:08:21;;;;;;;15.27;13.90;;;;;;;11.36;99.33;100271.38;5020929;28;20217;-82
2024/03/14 04:10:47;;;;;;;16.73;15.13;;;;;;;11.27;99.91;100268.09;5020375;28;20613;-82
2024/03/14 04:13:15;;;;;;;15.80;14.37;;;;;;;11.33;99.84;100265.31;5024214;28;20232;-84
2024/03/14 04:15:41;;;;;;;15.97;14.37;;;;;;;11.39;99.35;100260.84;5025694;28;20217;-81
2024/03/14 04:18:08;;;;;;;16.50;14.20;;;;;;;11.37;100.00;100252.19;5020538;28;20232;-82
2024/03/14 04:20:37;;;;;;;13.60;12.30;;;;;;;11.38;99.42;100264.34;5020230;28;20627;-83
2024/03/14 04:23:05;;;;;;;15.27;13.50;;;;;;;11.45;99.55;100252.84;5021351;28;20302;-83
2024/03/14 04:25:31;;;;;;;15.67;14.00;;;;;;;11.45;99.41;100261.53;5021024;28;20212;-83
2024/03/14 04:27:58;;;;;;;15.20;13.77;;;;;;;11.40;99.07;100268.66;5020340;28;20206;-82
2024/03/14 04:30:24;;;;;;;15.13;13.53;;;;;;;11.46;98.98;100258.06;5020190;28;20332;-83
2024/03/14 04:32:50;;;;;;;15.73;14.03;;;;;;;11.46;98.85;100259.81;5020023;28;20208;-82
2024/03/14 04:35:17;;;;;;;14.70;13.20;;;;;;;11.43;98.64;100259.88;5020627;28;20216;-83
2024/03/14 04:37:44;;;;;;;15.33;13.77;;;;;;;11.31;99.16;100267.13;5020147;28;20204;-82
2024/03/14 04:40:12;;;;;;;17.30;15.00;;;;;;;11.38;99.39;100261.75;5020309;28;20225;-82
2024/03/14 04:42:40;;;;;;;15.27;13.80;;;;;;;11.06;99.60;100263.38;5020220;28;20614;-83
2024/03/14 04:45:08;;;;;;;15.60;14.10;;;;;;;11.20;100.00;100245.66;5020967;28;20216;-83
2024/03/14 04:47:34;;;;;;;18.93;15.93;;;;;;;11.24;98.96;100247.28;5020873;28;20215;-83
2024/03/14 04:50:01;;;;;;;16.80;13.50;;;;;;;11.29;98.72;100258.47;5020254;28;20258;-83
2024/03/14 04:52:28;;;;;;;14.23;12.93;;;;;;;11.24;99.06;100260.34;5020954;28;20217;-84
2024/03/14 04:54:55;;;;;;;14.80;13.33;;;;;;;11.19;99.32;100258.75;5023759;28;20233;-83
2024/03/14 04:57:21;;;;;;;14.83;13.50;;;;;;;11.09;99.22;100258.09;5024500;28;20217;-81
2024/03/14 04:59:49;;;;;;;16.93;15.23;;;;;;;10.78;99.10;100256.19;5023888;28;20294;-83
2024/03/14 05:02:15;;;;;;;16.30;14.63;;;;;;;10.95;99.42;100255.81;5024278;28;20213;-83
2024/03/14 05:04:42;;;;;;;14.07;12.73;;;;;;;10.97;99.30;100246.19;5024763;28;20203;-82
2024/03/14 05:07:09;;;;;;;14.73;13.33;;;;;;;10.91;98.94;100249.81;5021241;28;20214;-81
2024/03/14 05:09:35;;;;;;;15.33;13.93;;;;;;;10.69;99.92;100252.03;5019331;28;20273;-81
2024/03/14 05:12:02;;;;;;;18.80;15.13;;;;;;;10.65;100.00;100241.72;5018714;28;20233;-82
2024/03/14 05:14:28;;;;;;;15.53;14.03;;;;;;;10.69;100.00;100238.16;5026338;28;20211;-81
2024/03/14 05:16:56;;;;;;;16.53;14.57;;;;;;;10.70;100.00;100242.47;5027636;28;20213;-82
2024/03/14 05:19:23;;;;;;;15.90;14.40;;;;;;;10.71;100.00;100242.44;5037187;28;20593;-81
2024/03/14 05:21:50;;;;;;;15.43;14.03;;;;;;;10.57;100.00;100254.94;5035703;28;20205;-83
2024/03/14 05:24:16;;;;;;;14.93;13.50;;;;;;;10.52;100.00;100248.94;5034598;28;20212;-82
2024/03/14 05:26:43;;;;;;;16.37;14.77;;;;;;;10.47;100.00;100235.16;5035462;28;20213;-83
2024/03/14 05:29:09;;;;;;;14.83;13.37;;;;;;;10.53;100.00;100233.25;5035626;28;20207;-83
2024/03/14 05:31:36;;;;;;;21.20;15.77;;;;;;;10.53;100.00;100232.41;5034814;28;20232;-83
2024/03/14 05:34:02;;;;;;;17.53;15.43;;;;;;;10.47;100.00;100228.19;5035154;28;20211;-82
2024/03/14 05:36:29;;;;;;;16.20;14.50;;;;;;;10.48;100.00;100222.06;5034318;28;20259;-81
2024/03/14 05:38:55;;;;;;;16.57;14.83;;;;;;;10.41;100.00;100217.03;5033575;28;20243;-83
2024/03/14 05:41:22;;;;;;;15.23;13.63;;;;;;;10.45;100.00;100216.06;5034147;28;20582;-82
2024/03/14 05:43:48;;;;;;;17.23;15.47;;;;;;;10.52;100.00;100218.50;5036669;28;20204;-84
2024/03/14 05:46:15;;;;;;;16.10;14.47;;;;;;;10.49;100.00;100221.19;5036610;28;20236;-82
2024/03/14 05:48:42;;;;;;;14.90;13.40;;;;;;;10.49;100.00;100221.19;5036665;28;20575;-82
2024/03/14 05:51:09;;;;;;;15.77;14.23;;;;;;;10.56;100.00;100223.66;5036777;28;20239;-82
2024/03/14 05:53:35;;;;;;;15.87;14.00;;;;;;;10.51;100.00;100226.38;5037992;28;20212;-82
2024/03/14 05:56:02;;;;;;;21.47;15.87;;;;;;;10.41;100.00;100222.25;5038658;28;20236;-82
2024/03/14 05:58:30;;;;;;;16.53;14.80;;;;;;;10.51;100.00;100222.00;5038525;28;20247;-81
2024/03/14 06:00:57;;;;;;;17.77;15.90;;;;;;;10.56;100.00;100224.50;5036886;28;20236;-81
2024/03/14 06:03:23;;;;;;;16.57;14.80;;;;;;;10.48;100.00;100211.63;5039261;28;20794;-81
2024/03/14 06:05:52;;;;;;;16.57;14.97;;;;;;;10.56;100.00;100208.00;5041892;28;20205;-83
2024/03/14 06:08:18;;;;;;;16.73;14.93;;;;;;;10.55;100.00;100209.75;5041526;28;20208;-82
2024/03/14 06:10:45;;;;;;;16.93;15.17;;;;;;;10.63;100.00;100199.13;5041387;28;20233;-82
2024/03/14 06:13:11;;;;;;;21.87;16.03;;;;;;;10.68;100.00;100205.97;5038940;28;20697;-81
2024/03/14 06:15:38;;;;;;;19.03;15.77;;;;;;;10.68;100.00;100198.13;5020735;28;20201;-81
2024/03/14 06:18:05;;;;;;;17.50;15.67;;;;;;;10.72;100.00;100186.72;5021252;28;20609;-83
2024/03/14 06:20:32;;;;;;;18.17;15.33;;;;;;;10.75;100.00;100192.78;5021649;28;20230;-81
2024/03/14 06:22:58;;;;;;;17.57;15.90;;;;;;;10.69;100.00;100186.78;5022506;28;20220;-81
2024/03/14 06:25:25;;;;;;;22.53;16.10;;;;;;;10.73;100.00;100175.38;5021671;28;20206;-81
2024/03/14 06:27:52;;;;;;;19.07;15.93;;;;;;;10.84;100.00;100176.88;5021965;28;20208;-83
2024/03/14 06:30:18;;;;;;;18.50;16.67;;;;;;;10.90;100.00;100174.97;5021850;28;20636;-83
2024/03/14 06:32:46;;;;;;;19.57;16.73;;;;;;;10.96;100.00;100173.09;5022463;28;20253;-83
2024/03/14 06:35:13;;;;;;;16.57;14.97;;;;;;;11.04;100.00;100171.16;5022508;28;20210;-83
2024/03/14 06:37:41;;;;;;;17.40;15.67;;;;;;;10.98;100.00;100153.91;5023504;28;20207;-83
2024/03/14 06:40:08;;;;;;;17.30;15.60;;;;;;;10.93;100.00;100138.31;5023994;28;20299;-83
2024/03/14 06:42:34;;;;;;;18.30;16.37;;;;;;;11.02;100.00;100144.22;5023280;28;20203;-83
2024/03/14 06:45:02;;;;;;;20.07;17.97;;;;;;;10.99;100.00;100157.38;5049429;28;20243;-83
2024/03/14 06:47:29;;;;;;;18.40;16.47;;;;;;;11.02;100.00;100168.59;5045498;28;20208;-83
2024/03/14 06:49:57;;;;;;;17.10;15.50;;;;;;;11.03;100.00;100148.56;5040700;28;20229;-81
2024/03/14 06:52:23;;;;;;;18.60;16.80;;;;;;;11.05;100.00;100150.22;5042186;28;20225;-83
2024/03/14 06:54:50;;;;;;;22.03;16.23;;;;;;;11.10;100.00;100158.81;5041943;28;20228;-82
2024/03/14 06:57:16;;;;;;;17.53;15.93;;;;;;;11.17;100.00;100154.28;5040750;28;20241;-84
2024/03/14 06:59:48;;;;;;;18.17;16.37;;;;;;;11.13;100.00;100160.47;5040456;28;20231;-83
2024/03/14 07:02:17;;;;;;;20.87;15.87;;;;;;;11.17;100.00;100167.34;5041247;28;20208;-82
2024/03/14 07:04:43;;;;;;;17.77;16.10;;;;;;;11.17;100.00;100167.34;5040545;28;20204;-84
2024/03/14 07:07:11;;;;;;;18.63;16.70;;;;;;;11.23;100.00;100154.09;5039862;28;20209;-83
2024/03/14 07:09:37;;;;;;;17.50;15.83;;;;;;;11.26;100.00;100147.97;5041141;28;20239;-83
2024/03/14 07:12:05;;;;;;;16.93;15.23;;;;;;;11.24;100.00;100162.81;5042131;28;20763;-83
2024/03/14 07:14:31;;;;;;;17.77;15.97;;;;;;;11.24;100.00;100171.50;5029028;28;20665;-84
2024/03/14 07:16:58;;;;;;;17.03;15.33;;;;;;;11.33;100.00;100183.47;5036530;28;20255;-83
2024/03/14 07:19:24;;;;;;;17.00;15.30;;;;;;;11.29;100.00;100172.22;5040443;28;20727;-83
2024/03/14 07:21:53;;;;;;;17.17;15.37;;;;;;;11.38;100.00;100165.94;5041238;28;20212;-83
2024/03/14 07:24:21;;;;;;;16.73;15.13;;;;;;;11.56;100.00;100169.78;5040510;28;20212;-84
2024/03/14 07:26:47;;;;;;;15.97;14.53;;;;;;;11.65;100.00;100185.22;5041606;28;20697;-82
2024/03/14 07:29:14;;;;;;;19.13;15.53;;;;;;;11.61;100.00;100207.09;5040683;28;20281;-82
2024/03/14 07:31:42;;;;;;;15.67;14.23;;;;;;;11.57;100.00;100217.69;5040501;28;20726;-83
2024/03/14 07:34:10;;;;;;;16.57;15.13;;;;;;;11.72;100.00;100222.53;5041299;28;20206;-82
2024/03/14 07:36:38;;;;;;;15.97;14.50;;;;;;;11.67;100.00;100221.78;5040483;28;20208;-84
2024/03/14 07:39:06;;;;;;;16.90;15.50;;;;;;;11.67;100.00;100259.25;5039581;28;20201;-83
2024/03/14 07:41:32;;;;;;;15.70;14.40;;;;;;;11.74;98.15;100304.41;5039589;28;20199;-82
2024/03/14 07:43:59;;;;;;;15.80;14.43;;;;;;;11.70;96.83;100332.38;5036743;28;20353;-82
2024/03/14 07:46:25;;;;;;;15.37;14.07;;;;;;;11.94;95.64;100360.59;5036075;28;20213;-85
2024/03/14 07:48:53;;;;;;;15.47;14.17;;;;;;;12.02;94.54;100390.03;5036679;28;20204;-83
2024/03/14 07:51:20;;;;;;;15.53;14.03;;;;;;;12.02;94.00;100403.97;5036707;28;20234;-82
2024/03/14 07:53:47;;;;;;;15.63;14.27;;;;;;;12.06;92.43;100420.44;5038149;28;20221;-84
2024/03/14 07:56:14;;;;;;;15.60;14.13;;;;;;;12.27;93.24;100440.00;5038636;28;20240;-83
2024/03/14 07:58:42;;;;;;;15.17;13.77;;;;;;;12.35;92.30;100452.84;5037299;28;20208;-82
2024/03/14 08:01:09;;;;;;;15.77;14.43;;;;;;;12.51;91.89;100470.75;5037470;28;20233;-82
2024/03/14 08:03:38;;;;;;;14.27;13.07;;;;;;;12.63;91.68;100479.19;5037031;28;20216;-85
2024/03/14 08:06:05;;;;;;;14.80;13.60;;;;;;;12.64;90.87;100494.84;5037452;28;20208;-83
2024/03/14 08:08:34;;;;;;;15.83;14.30;;;;;;;12.79;90.91;100490.09;5037195;28;20216;-84
2024/03/14 08:11:03;;;;;;;16.37;15.00;;;;;;;12.94;91.40;100499.28;5035933;28;20320;-84
2024/03/14 08:13:31;;;;;;;14.43;13.23;;;;;;;13.00;89.15;100520.06;5037857;28;20216;-84
2024/03/14 08:16:08;;;;;;;15.07;13.67;;;;;;;12.89;87.20;100563.16;5020203;28;20215;-82
2024/03/14 08:18:37;;;;;;;14.20;13.00;;;;;;;12.85;86.01;100607.81;5021692;28;20204;-84
2024/03/14 08:21:06;;;;;;;14.77;13.57;;;;;;;13.11;86.33;100607.13;5020506;28;20313;-82
2024/03/14 08:23:33;;;;;;;14.90;13.70;;;;;;;12.97;85.78;100633.69;5020769;28;20218;-83
2024/03/14 08:26:00;;;;;;;14.57;13.27;;;;;;;13.09;85.35;100640.38;5019565;28;20267;-83
2024/03/14 08:28:26;;;;;;;14.60;13.40;;;;;;;13.23;84.45;100663.63;5020464;28;20212;-84
2024/03/14 08:30:53;;;;;;;13.87;12.77;;;;;;;13.02;84.42;100668.53;5020071;28;20227;-83
2024/03/14 08:33:22;;;;;;;13.77;12.67;;;;;;;13.28;84.83;100656.50;5020104;28;20242;-83
2024/03/14 08:35:49;;;;;;;14.20;13.00;;;;;;;13.33;84.22;100662.50;5020380;28;20212;-83
2024/03/14 08:38:16;;;;;;;15.10;13.83;;;;;;;13.46;84.86;100660.41;5020126;28;20247;-84
2024/03/14 08:40:42;;;;;;;14.43;13.33;;;;;;;13.39;83.83;100672.81;5019243;28;20232;-85
2024/03/14 08:43:11;;;;;;;13.13;12.07;;;;;;;13.29;83.03;100693.19;5020837;28;20702;-84
2024/03/14 08:45:37;;;;;;;14.23;13.03;;;;;;;13.44;83.31;100694.56;5019304;28;20209;-84
2024/03/14 08:48:07;;;;;;;14.03;12.83;;;;;;;13.38;82.10;100714.81;5019364;28;20208;-82
2024/03/14 08:50:34;;;;;;;14.93;13.70;;;;;;;13.46;82.55;100712.88;5021126;28;20324;-82
2024/03/14 08:53:01;;;;;;;12.87;11.87;;;;;;;13.39;82.46;100716.53;5020124;28;20263;-82
2024/03/14 08:55:33;;;;;;;12.93;11.83;;;;;;;13.46;81.90;100723.38;5019431;28;20262;-83
2024/03/14 08:57:59;;;;;;;13.43;12.33;;;;;;;13.45;81.18;100734.72;5019914;28;20262;-83
2024/03/14 09:00:26;;;;;;;13.97;12.87;;;;;;;13.51;81.68;100742.44;5018786;28;20239;-84
2024/03/14 09:02:52;;;;;;;13.77;12.60;;;;;;;13.41;82.62;100731.31;5019749;28;20209;-84
2024/03/14 09:05:20;;;;;;;13.63;12.53;;;;;;;13.38;82.50;100717.44;5020276;28;20212;-83
2024/03/14 09:07:46;;;;;;;13.60;12.60;;;;;;;13.48;83.07;100709.28;5019728;28;20209;-84
2024/03/14 09:10:17;;;;;;;13.80;12.60;;;;;;;13.55;82.74;100706.50;5019481;28;20237;-84
2024/03/14 09:12:45;;;;;;;13.63;12.60;;;;;;;13.56;82.57;100709.09;5020991;28;20233;-83
2024/03/14 09:15:12;;;;;;;13.47;12.37;;;;;;;13.50;81.32;100715.34;5023516;28;20200;-83
2024/03/14 09:17:39;;;;;;;13.70;12.50;;;;;;;13.23;82.16;100716.03;5039395;28;20266;-82
2024/03/14 09:20:09;;;;;;;14.10;12.80;;;;;;;13.43;82.59;100707.69;5039584;28;20318;-82
2024/03/14 09:22:36;;;;;;;14.17;12.90;;;;;;;13.47;82.28;100706.72;5041239;28;20218;-82
2024/03/14 09:25:03;;;;;;;12.97;11.87;;;;;;;13.50;82.37;100715.34;5039678;28;20207;-83
2024/03/14 09:27:32;;;;;;;14.07;12.67;;;;;;;13.44;81.85;100714.69;5039175;28;20218;-82
2024/03/14 09:29:59;;;;;;;14.20;13.00;;;;;;;13.45;81.17;100724.25;5039509;28;20636;-83
2024/03/14 09:32:29;;;;;;;13.77;12.47;;;;;;;13.42;81.92;100722.56;5038862;28;20227;-84
2024/03/14 09:34:56;;;;;;;13.33;12.33;;;;;;;13.50;82.13;100710.13;5039894;28;20204;-83
2024/03/14 09:37:25;;;;;;;13.20;12.07;;;;;;;13.41;81.29;100718.22;5039538;28;20210;-82
2024/03/14 09:39:51;;;;;;;12.80;11.90;;;;;;;13.45;81.81;100725.09;5043712;28;20267;-83
2024/03/14 09:42:20;;;;;;;12.60;11.53;;;;;;;13.50;79.93;100749.44;5043573;28;20204;-83
2024/03/14 09:44:48;;;;;;;12.40;11.50;;;;;;;13.45;80.15;100756.56;5032074;28;20291;-83
2024/03/14 09:47:15;;;;;;;12.13;11.23;;;;;;;13.52;80.68;100759.91;5039651;28;20213;-82
2024/03/14 09:49:42;;;;;;;12.00;11.07;;;;;;;13.41;79.87;100752.31;5043197;28;20223;-83
2024/03/14 09:52:09;;;;;;;11.87;10.90;;;;;;;13.63;81.06;100741.25;5043098;28;20232;-83
2024/03/14 09:54:36;;;;;;;12.73;11.63;;;;;;;13.67;79.60;100746.38;5043301;28;20213;-83
2024/03/14 09:57:02;;;;;;;12.97;11.97;;;;;;;13.83;80.14;100746.81;5043040;28;20209;-84
2024/03/14 09:59:29;;;;;;;12.50;11.60;;;;;;;13.88;80.51;100744.09;5043338;28;20234;-84
2024/03/14 10:01:55;;;;;;;12.13;11.23;;;;;;;13.80;78.09;100767.91;5043215;28;20231;-83
2024/03/14 10:04:22;;;;;;;12.33;11.43;;;;;;;13.90;78.70;100777.25;5043095;28;20234;-84
2024/03/14 10:06:48;;;;;;;12.37;11.23;;;;;;;14.04;80.35;100755.00;5043211;28;20216;-83
2024/03/14 10:09:22;;;;;;;11.90;11.00;;;;;;;14.06;79.52;100735.69;5042964;28;20237;-84
2024/03/14 10:11:50;;;;;;;12.10;11.20;;;;;;;14.23;78.49;100757.94;5043786;28;20219;-84
2024/03/14 10:14:20;;;;;;;11.87;10.97;;;;;;;14.18;76.46;100801.88;5034692;28;20671;-84
2024/03/14 10:16:47;;;;;;;11.03;10.03;;;;;;;14.23;76.46;100811.34;5034437;28;20263;-83
2024/03/14 10:19:13;;;;;;;10.83;10.03;;;;;;;14.18;75.79;100834.25;5042410;28;20257;-85
2024/03/14 10:21:40;;;;;;;11.00;10.23;;;;;;;14.36;75.61;100843.38;5042276;28;20751;-82
2024/03/14 10:24:08;;;;;;;10.83;10.00;;;;;;;14.46;75.76;100851.84;5042977;28;20263;-82
2024/03/14 10:26:35;;;;;;;10.07;9.13;;;;;;;14.30;74.46;100852.28;5042553;28;20251;-83
2024/03/14 10:29:03;;;;;;;9.13;8.53;;;;;;;14.47;73.25;100895.63;5042687;28;20261;-84
2024/03/14 10:31:30;;;;;;;8.23;7.63;;;;;;;14.73;73.59;100899.28;5042325;28;20212;-82
2024/03/14 10:33:56;;;;;;;8.57;7.83;;;;;;;14.66;72.17;100923.09;5042188;28;20295;-83
2024/03/14 10:36:25;;;;;;;10.20;9.33;;;;;;;14.81;72.55;100948.09;5041692;28;20236;-83
2024/03/14 10:38:52;;;;;;;9.53;8.83;;;;;;;14.92;74.30;100928.53;5041616;28;20234;-85
2024/03/14 10:41:18;;;;;;;9.37;8.57;;;;;;;14.93;71.69;100949.53;5041144;28;20211;-83
2024/03/14 10:43:45;;;;;;;9.17;8.57;;;;;;;14.84;70.30;100986.56;5038282;28;20201;-84
2024/03/14 10:46:13;;;;;;;8.53;7.83;;;;;;;15.12;71.04;100991.03;5021706;28;20217;-83
2024/03/14 10:48:39;;;;;;;8.57;7.87;;;;;;;15.19;71.69;100982.94;5021633;28;20241;-82
2024/03/14 10:51:06;;;;;;;16.93;15.57;;;;;;;15.21;71.50;100981.13;5021765;28;20240;-83
2024/03/14 10:53:33;;;;;;;9.93;9.13;;;;;;;15.14;71.62;100983.97;5021582;28;20256;-83
2024/03/14 10:56:00;;;;;;;9.40;8.80;;;;;;;15.04;71.01;100986.00;5021493;28;20248;-84
2024/03/14 10:58:27;;;;;;;8.73;8.03;;;;;;;15.24;70.69;100980.16;5021377;28;20211;-83
2024/03/14 11:00:53;;;;;;;7.80;7.30;;;;;;;15.04;67.97;101030.69;5020719;28;20229;-83
2024/03/14 11:03:20;;;;;;;9.23;8.53;;;;;;;14.94;68.75;101034.50;5021453;28;20209;-84
2024/03/14 11:05:48;;;;;;;8.47;7.87;;;;;;;14.83;69.29;101017.25;5021189;28;20212;-83